createdAt,value
2022-11-29T00:01:28.081Z,16.80
2022-11-29T00:03:55.347Z,17.50
2022-11-29T00:06:24.505Z,18.38
2022-11-29T00:08:50.991Z,17.90
2022-11-29T00:11:39.307Z,16.23
2022-11-29T00:14:07.829Z,18.02
2022-11-29T00:16:34.777Z,16.38
2022-11-29T00:19:02.142Z,16.65
2022-11-29T00:21:28.878Z,16.83
2022-11-29T00:23:55.555Z,16.50
2022-11-29T00:26:22.187Z,16.92
2022-11-29T00:28:48.790Z,16.50
2022-11-29T00:31:20.988Z,16.35
2022-11-29T00:33:47.957Z,16.13
2022-11-29T00:36:14.528Z,17.20
2022-11-29T00:38:41.402Z,16.23
2022-11-29T00:41:08.536Z,16.48
2022-11-29T00:43:35.657Z,15.95
2022-11-29T00:46:03.167Z,16.08
2022-11-29T00:48:30.366Z,16.80
2022-11-29T00:50:56.732Z,15.93
2022-11-29T00:53:23.206Z,15.30
2022-11-29T00:55:52.290Z,16.35
2022-11-29T00:58:19.911Z,16.08
2022-11-29T01:00:47.471Z,15.43
2022-11-29T01:03:15.718Z,15.35
2022-11-29T01:05:42.854Z,14.15
2022-11-29T01:08:09.873Z,14.52
2022-11-29T01:10:36.475Z,14.88
2022-11-29T01:13:02.941Z,16.33
2022-11-29T01:15:29.367Z,13.32
2022-11-29T01:17:55.835Z,13.68
2022-11-29T01:20:22.229Z,14.90
2022-11-29T01:22:48.607Z,15.45
2022-11-29T01:25:15.309Z,15.52
2022-11-29T01:27:42.153Z,17.63
2022-11-29T01:30:09.853Z,16.55
2022-11-29T01:32:37.453Z,15.77
2022-11-29T01:35:05.828Z,13.80
2022-11-29T01:37:32.885Z,13.73
2022-11-29T01:39:59.240Z,14.70
2022-11-29T01:42:25.635Z,14.95
2022-11-29T01:45:15.688Z,14.35
2022-11-29T01:47:45.559Z,14.07
2022-11-29T01:50:12.228Z,14.85
2022-11-29T01:52:39.152Z,14.20
2022-11-29T01:55:07.752Z,15.73
2022-11-29T01:57:36.436Z,13.75
2022-11-29T02:00:13.973Z,14.25
2022-11-29T02:02:44.152Z,13.13
2022-11-29T02:05:13.462Z,13.88
2022-11-29T02:07:44.008Z,14.70
2022-11-29T02:10:10.917Z,13.95
2022-11-29T02:13:14.781Z,15.00
2022-11-29T02:16:03.564Z,14.02
2022-11-29T02:19:02.696Z,16.10
2022-11-29T02:21:46.798Z,15.60
2022-11-29T02:24:35.134Z,15.07
2022-11-29T02:27:35.299Z,14.80
2022-11-29T02:30:20.777Z,14.45
2022-11-29T02:33:14.596Z,14.65
2022-11-29T02:35:59.248Z,14.05
2022-11-29T02:38:43.500Z,14.18
2022-11-29T02:41:25.082Z,14.30
2022-11-29T02:44:13.496Z,15.48
2022-11-29T02:47:03.828Z,15.20
2022-11-29T02:49:33.442Z,13.55
2022-11-29T02:52:30.228Z,16.00
2022-11-29T02:55:04.953Z,13.65
2022-11-29T02:57:37.531Z,15.00
2022-11-29T03:00:23.308Z,14.80
2022-11-29T03:03:14.812Z,14.57
2022-11-29T03:06:23.999Z,14.80
2022-11-29T03:09:14.763Z,14.45
2022-11-29T03:11:50.616Z,14.55
2022-11-29T03:14:47.896Z,14.48
2022-11-29T03:17:32.145Z,13.98
2022-11-29T03:21:03.356Z,14.35
2022-11-29T03:23:50.783Z,15.20
2022-11-29T03:26:31.598Z,13.13
2022-11-29T03:29:07.277Z,13.63
2022-11-29T03:31:38.942Z,16.00
2022-11-29T03:34:44.050Z,16.05
2022-11-29T03:37:16.084Z,15.43
2022-11-29T03:39:56.240Z,14.55
2022-11-29T03:42:32.713Z,14.77
2022-11-29T03:45:07.633Z,14.52
2022-11-29T03:47:42.455Z,14.82
2022-11-29T03:50:22.020Z,15.70
2022-11-29T03:52:59.838Z,14.95
2022-11-29T03:55:47.993Z,15.10
2022-11-29T03:58:54.235Z,14.48
2022-11-29T04:01:50.254Z,15.27
2022-11-29T04:05:02.687Z,14.60
2022-11-29T04:08:01.795Z,15.40
2022-11-29T04:10:47.190Z,15.82
2022-11-29T04:13:39.418Z,16.83
2022-11-29T04:16:14.317Z,15.10
2022-11-29T04:18:53.317Z,16.38
2022-11-29T04:21:44.584Z,14.98
2022-11-29T04:24:46.134Z,15.48
2022-11-29T04:27:38.003Z,15.43
2022-11-29T04:30:18.725Z,15.05
2022-11-29T04:32:54.894Z,14.80
2022-11-29T04:35:55.360Z,15.75
2022-11-29T04:38:24.815Z,14.63
2022-11-29T04:41:28.688Z,15.85
2022-11-29T04:44:22.141Z,15.20
2022-11-29T04:47:11.564Z,14.75
2022-11-29T04:50:04.906Z,15.15
2022-11-29T04:52:50.099Z,14.50
2022-11-29T04:55:35.552Z,15.30
2022-11-29T04:58:35.016Z,14.65
2022-11-29T05:01:53.894Z,14.13
2022-11-29T05:04:26.083Z,15.07
2022-11-29T05:07:24.649Z,15.52
2022-11-29T05:10:27.825Z,14.15
2022-11-29T05:13:19.372Z,14.70
2022-11-29T05:16:11.943Z,14.85
2022-11-29T05:19:03.100Z,13.73
2022-11-29T05:22:13.004Z,13.95
2022-11-29T05:25:09.829Z,13.70
2022-11-29T05:27:41.435Z,15.18
2022-11-29T05:30:20.947Z,13.98
2022-11-29T05:33:38.100Z,14.32
2022-11-29T05:36:19.910Z,15.60
2022-11-29T05:38:59.358Z,14.25
2022-11-29T05:41:55.188Z,15.25
2022-11-29T05:44:36.602Z,15.45
2022-11-29T05:47:05.750Z,14.05
2022-11-29T05:49:38.376Z,13.52
2022-11-29T05:52:24.993Z,15.10
2022-11-29T05:55:19.232Z,13.45
2022-11-29T05:58:12.739Z,15.13
2022-11-29T06:00:59.468Z,14.00
2022-11-29T06:03:40.565Z,14.93
2022-11-29T06:06:19.334Z,14.57
2022-11-29T06:08:58.184Z,13.85
2022-11-29T06:11:30.783Z,15.95
2022-11-29T06:14:13.276Z,14.23
2022-11-29T06:17:10.863Z,14.85
2022-11-29T06:19:58.015Z,14.68
2022-11-29T06:22:39.126Z,14.15
2022-11-29T06:25:17.838Z,14.75
2022-11-29T06:28:05.287Z,14.20
2022-11-29T06:31:02.858Z,13.23
2022-11-29T06:33:45.019Z,12.75
2022-11-29T06:36:41.278Z,14.23
2022-11-29T06:39:09.791Z,15.98
2022-11-29T06:41:36.495Z,15.45
2022-11-29T06:44:03.441Z,14.27
2022-11-29T06:46:51.610Z,14.57
2022-11-29T06:49:29.785Z,14.27
2022-11-29T06:52:18.120Z,15.30
2022-11-29T06:55:02.963Z,15.48
2022-11-29T06:57:50.804Z,18.08
2022-11-29T07:00:27.019Z,17.70
2022-11-29T07:03:36.972Z,16.33
2022-11-29T07:06:14.423Z,17.15
2022-11-29T07:08:41.215Z,17.73
2022-11-29T07:11:11.704Z,19.27
2022-11-29T07:13:38.788Z,16.13
2022-11-29T07:16:28.128Z,18.40
2022-11-29T07:19:00.400Z,18.75
2022-11-29T07:21:45.998Z,17.45
2022-11-29T07:24:38.762Z,17.25
2022-11-29T07:27:47.379Z,16.42
2022-11-29T07:30:21.252Z,16.35
2022-11-29T07:32:53.683Z,15.95
2022-11-29T07:35:33.584Z,16.20
2022-11-29T07:38:37.872Z,16.63
2022-11-29T07:41:29.725Z,16.15
2022-11-29T07:44:10.860Z,15.70
2022-11-29T07:46:37.511Z,16.90
2022-11-29T07:49:03.906Z,18.73
2022-11-29T07:51:31.336Z,17.13
2022-11-29T07:53:58.002Z,17.08
2022-11-29T07:56:24.381Z,18.50
2022-11-29T07:58:50.780Z,18.92
2022-11-29T08:01:17.275Z,18.75
2022-11-29T08:03:43.671Z,18.98
2022-11-29T08:06:10.265Z,19.42
2022-11-29T08:08:42.250Z,20.88
2022-11-29T08:11:12.785Z,20.35
2022-11-29T08:13:39.182Z,21.00
2022-11-29T08:16:05.784Z,19.30
2022-11-29T08:18:32.156Z,19.85
2022-11-29T08:20:58.627Z,20.65
2022-11-29T08:23:26.391Z,22.30
2022-11-29T08:25:59.542Z,20.75
2022-11-29T08:28:26.040Z,20.70
2022-11-29T08:31:04.216Z,21.65
2022-11-29T08:33:30.921Z,19.67
2022-11-29T08:36:07.048Z,20.75
2022-11-29T08:38:33.469Z,20.15
2022-11-29T08:41:02.163Z,21.15
2022-11-29T08:43:29.839Z,21.05
2022-11-29T08:45:57.014Z,20.30
2022-11-29T08:48:24.202Z,21.38
2022-11-29T08:50:52.342Z,21.35
2022-11-29T08:53:37.967Z,22.67
2022-11-29T08:56:23.618Z,21.30
2022-11-29T08:58:51.249Z,21.70
2022-11-29T09:01:19.525Z,19.85
2022-11-29T09:04:06.886Z,22.25
2022-11-29T09:06:38.254Z,21.73
2022-11-29T09:09:04.949Z,22.30
2022-11-29T09:11:33.765Z,21.23
2022-11-29T09:14:03.071Z,22.77
2022-11-29T09:16:33.103Z,20.25
2022-11-29T09:19:00.040Z,23.00
2022-11-29T09:21:29.037Z,22.85
2022-11-29T09:24:00.372Z,20.15
2022-11-29T09:26:29.822Z,23.05
2022-11-29T09:29:01.032Z,21.58
2022-11-29T09:31:28.982Z,22.00
2022-11-29T09:33:55.865Z,20.60
2022-11-29T09:36:27.905Z,22.13
2022-11-29T09:38:55.360Z,19.88
2022-11-29T09:41:52.798Z,22.50
2022-11-29T09:44:44.795Z,18.80
2022-11-29T09:47:48.911Z,20.45
2022-11-29T09:50:34.974Z,20.77
2022-11-29T09:53:08.981Z,21.20
2022-11-29T09:55:47.575Z,21.70
2022-11-29T09:58:20.861Z,21.20
2022-11-29T10:00:54.764Z,20.27
2022-11-29T10:03:31.475Z,22.73
2022-11-29T10:06:23.664Z,19.63
2022-11-29T10:08:59.016Z,20.58
2022-11-29T10:11:32.757Z,21.60
2022-11-29T10:14:25.189Z,21.65
2022-11-29T10:17:13.679Z,31.17
2022-11-29T10:19:50.608Z,23.33
2022-11-29T10:22:21.803Z,20.98
2022-11-29T10:24:51.708Z,19.38
2022-11-29T10:27:23.797Z,19.70
2022-11-29T10:29:53.482Z,19.97
2022-11-29T10:32:23.214Z,20.35
2022-11-29T10:34:50.410Z,19.52
2022-11-29T10:37:21.764Z,21.58
2022-11-29T10:39:53.032Z,21.20
2022-11-29T10:42:40.788Z,19.95
2022-11-29T10:45:15.959Z,21.58
2022-11-29T10:47:46.560Z,20.27
2022-11-29T10:50:28.109Z,19.92
2022-11-29T10:53:04.611Z,20.70
2022-11-29T10:55:38.648Z,22.13
2022-11-29T10:58:14.269Z,22.27
2022-11-29T11:00:46.384Z,21.25
2022-11-29T11:03:22.844Z,21.37
2022-11-29T11:06:12.424Z,22.20
2022-11-29T11:08:45.959Z,21.50
2022-11-29T11:11:13.468Z,22.27
2022-11-29T11:13:41.037Z,22.20
2022-11-29T11:16:18.232Z,23.10
2022-11-29T11:18:47.220Z,23.88
2022-11-29T11:21:16.804Z,23.95
2022-11-29T11:23:56.739Z,22.88
2022-11-29T11:26:24.677Z,20.90
2022-11-29T11:29:02.410Z,21.65
2022-11-29T11:31:38.062Z,23.67
2022-11-29T11:34:36.514Z,22.40
2022-11-29T11:37:15.093Z,19.13
2022-11-29T11:39:43.167Z,20.08
2022-11-29T11:42:34.756Z,20.63
2022-11-29T11:45:04.494Z,20.60
2022-11-29T11:47:35.525Z,19.73
2022-11-29T11:50:04.652Z,22.25
2022-11-29T11:52:42.057Z,21.20
2022-11-29T11:55:29.808Z,21.45
2022-11-29T11:58:12.937Z,22.42
2022-11-29T12:01:14.724Z,24.52
2022-11-29T12:03:52.776Z,21.58
2022-11-29T12:06:31.184Z,23.83
2022-11-29T12:09:03.553Z,22.85
2022-11-29T12:11:39.052Z,16.65
2022-11-29T12:14:07.725Z,20.83
2022-11-29T12:16:38.114Z,21.58
2022-11-29T12:19:17.581Z,21.60
2022-11-29T12:21:52.351Z,22.02
2022-11-29T12:24:28.942Z,21.67
2022-11-29T12:26:58.936Z,21.00
2022-11-29T12:29:30.215Z,21.55
2022-11-29T12:32:11.802Z,21.30
2022-11-29T12:34:55.006Z,22.13
2022-11-29T12:37:27.325Z,21.33
2022-11-29T12:40:17.302Z,22.48
2022-11-29T12:43:05.177Z,21.77
2022-11-29T12:46:02.994Z,20.42
2022-11-29T12:48:59.991Z,22.40
2022-11-29T12:51:26.395Z,19.40
2022-11-29T12:54:14.056Z,20.08
2022-11-29T12:57:04.060Z,21.20
2022-11-29T13:00:04.461Z,22.85
2022-11-29T13:02:46.184Z,23.55
2022-11-29T13:05:17.392Z,22.10
2022-11-29T13:08:11.777Z,20.67
2022-11-29T13:11:04.414Z,22.02
2022-11-29T13:13:43.888Z,19.87
2022-11-29T13:16:39.321Z,20.80
2022-11-29T13:19:35.032Z,21.15
2022-11-29T13:22:09.363Z,20.25
2022-11-29T13:24:50.330Z,21.55
2022-11-29T13:27:27.226Z,22.05
2022-11-29T13:29:54.278Z,22.40
2022-11-29T13:32:39.889Z,21.67
2022-11-29T13:35:15.353Z,24.95
2022-11-29T13:37:55.604Z,22.88
2022-11-29T13:40:31.569Z,23.90
2022-11-29T13:43:31.333Z,24.83
2022-11-29T13:46:07.902Z,22.30
2022-11-29T13:48:46.713Z,23.70
2022-11-29T13:51:34.482Z,26.33
2022-11-29T13:54:04.776Z,25.52
2022-11-29T13:56:36.321Z,26.30
2022-11-29T13:59:08.535Z,28.02
2022-11-29T14:01:47.713Z,28.93
2022-11-29T14:04:37.223Z,24.67
2022-11-29T14:07:30.398Z,24.92
2022-11-29T14:10:05.557Z,24.45
2022-11-29T14:12:52.772Z,25.58
2022-11-29T14:15:26.545Z,21.42
2022-11-29T14:18:08.070Z,23.58
2022-11-29T14:20:43.426Z,22.60
2022-11-29T14:23:12.737Z,22.17
2022-11-29T14:25:56.042Z,22.63
2022-11-29T14:30:48.959Z,21.05
2022-11-29T14:33:26.839Z,23.88
2022-11-29T14:36:14.831Z,21.80
2022-11-29T14:39:08.707Z,21.52
2022-11-29T14:41:49.582Z,22.60
2022-11-29T14:44:21.148Z,24.00
2022-11-29T14:46:48.921Z,23.52
2022-11-29T14:49:21.931Z,22.98
2022-11-29T14:54:36.272Z,22.27
2022-11-29T14:57:54.155Z,21.63
2022-11-29T15:00:27.332Z,22.10
2022-11-29T15:03:03.990Z,22.33
2022-11-29T15:05:36.740Z,22.98
2022-11-29T15:08:30.271Z,21.40
2022-11-29T15:13:31.742Z,20.92
2022-11-29T15:16:40.008Z,21.33
2022-11-29T15:19:40.449Z,22.33
2022-11-29T15:22:22.331Z,20.67
2022-11-29T15:24:53.298Z,20.05
2022-11-29T15:27:20.760Z,20.88
2022-11-29T15:29:50.361Z,20.02
2022-11-29T15:32:22.463Z,19.63
2022-11-29T15:34:51.432Z,22.47
2022-11-29T15:37:36.558Z,20.48
2022-11-29T15:40:10.461Z,20.05
2022-11-29T15:42:53.167Z,20.13
2022-11-29T15:45:23.844Z,19.92
2022-11-29T15:47:50.419Z,20.65
2022-11-29T15:50:30.708Z,21.83
2022-11-29T15:53:03.096Z,21.48
2022-11-29T15:55:30.488Z,24.55
2022-11-29T15:58:06.972Z,22.23
2022-11-29T16:00:35.800Z,23.25
2022-11-29T16:03:04.493Z,23.60
2022-11-29T16:05:37.285Z,22.10
2022-11-29T16:08:08.075Z,21.65
2022-11-29T16:10:37.307Z,19.92
2022-11-29T16:13:25.235Z,21.00
2022-11-29T16:16:09.359Z,21.77
2022-11-29T16:18:40.963Z,21.02
2022-11-29T16:21:20.427Z,22.40
2022-11-29T16:23:46.963Z,20.85
2022-11-29T16:26:18.875Z,21.58
2022-11-29T16:28:48.487Z,20.98
2022-11-29T16:31:20.540Z,20.13
2022-11-29T16:33:49.322Z,21.77
2022-11-29T16:36:18.592Z,19.60
2022-11-29T16:38:52.078Z,21.60
2022-11-29T16:41:23.943Z,20.60
2022-11-29T16:43:54.073Z,22.10
2022-11-29T16:46:20.620Z,23.02
2022-11-29T16:48:50.880Z,21.58
2022-11-29T16:51:50.889Z,20.38
2022-11-29T16:54:25.883Z,21.05
2022-11-29T16:56:54.131Z,21.15
2022-11-29T16:59:26.809Z,21.90
2022-11-29T17:01:55.547Z,21.60
2022-11-29T17:04:23.904Z,20.17
2022-11-29T17:06:51.869Z,20.70
2022-11-29T17:09:27.674Z,22.60
2022-11-29T17:11:56.285Z,21.98
2022-11-29T17:14:22.965Z,21.08
2022-11-29T17:16:49.660Z,20.55
2022-11-29T17:19:16.589Z,23.02
2022-11-29T17:21:43.365Z,21.65
2022-11-29T17:24:13.618Z,21.73
2022-11-29T17:26:40.721Z,25.85
2022-11-29T17:29:07.546Z,28.55
2022-11-29T17:31:34.241Z,37.08
2022-11-29T17:34:00.752Z,33.65
2022-11-29T17:36:27.595Z,32.70
2022-11-29T17:38:54.181Z,34.72
2022-11-29T17:41:23.819Z,34.45
2022-11-29T17:43:51.483Z,31.55
2022-11-29T17:46:21.733Z,29.50
2022-11-29T17:48:48.686Z,29.20
2022-11-29T17:51:50.151Z,26.63
2022-11-29T17:54:04.483Z,23.65
2022-11-29T17:56:31.538Z,23.90
2022-11-29T17:59:00.384Z,23.52
2022-11-29T18:01:29.655Z,19.48
2022-11-29T18:03:59.502Z,21.40
2022-11-29T18:06:28.774Z,20.40
2022-11-29T18:08:57.769Z,19.90
2022-11-29T18:11:25.240Z,21.02
2022-11-29T18:13:55.945Z,18.38
2022-11-29T18:16:28.757Z,18.40
2022-11-29T18:19:15.292Z,17.98
2022-11-29T18:21:42.666Z,19.50
2022-11-29T18:24:09.647Z,20.30
2022-11-29T18:26:37.250Z,20.80
2022-11-29T18:29:05.394Z,19.77
2022-11-29T18:31:34.652Z,20.27
2022-11-29T18:34:03.426Z,19.98
2022-11-29T18:36:32.992Z,21.90
2022-11-29T18:39:02.244Z,18.45
2022-11-29T18:41:30.358Z,19.40
2022-11-29T18:44:18.314Z,17.58
2022-11-29T18:46:46.171Z,18.02
2022-11-29T18:49:15.279Z,18.25
2022-11-29T18:51:44.377Z,19.52
2022-11-29T18:54:11.245Z,18.38
2022-11-29T18:56:38.556Z,20.17
2022-11-29T18:59:10.790Z,20.58
2022-11-29T19:01:40.992Z,20.63
2022-11-29T19:04:16.240Z,18.15
2022-11-29T19:06:42.994Z,21.13
2022-11-29T19:09:16.413Z,20.33
2022-11-29T19:11:43.761Z,19.23
2022-11-29T19:14:11.908Z,18.48
2022-11-29T19:16:43.986Z,18.48
2022-11-29T19:19:11.046Z,20.77
2022-11-29T19:21:39.537Z,21.55
2022-11-29T19:24:13.393Z,21.90
2022-11-29T19:26:40.509Z,21.50
2022-11-29T19:29:06.929Z,21.08
2022-11-29T19:31:33.442Z,20.80
2022-11-29T19:33:59.770Z,20.10
2022-11-29T19:36:30.328Z,20.13
2022-11-29T19:38:58.089Z,20.90
2022-11-29T19:41:33.051Z,20.65
2022-11-29T19:44:02.413Z,19.25
2022-11-29T19:46:37.469Z,20.52
2022-11-29T19:49:06.188Z,18.73
2022-11-29T19:51:33.260Z,19.98
2022-11-29T19:54:02.785Z,19.83
2022-11-29T19:56:30.234Z,20.08
2022-11-29T19:58:57.113Z,19.02
2022-11-29T20:01:27.845Z,18.95
2022-11-29T20:03:57.863Z,19.80
2022-11-29T20:06:27.598Z,16.52
2022-11-29T20:08:54.311Z,16.23
2022-11-29T20:11:23.016Z,18.63
2022-11-29T20:13:58.376Z,16.75
2022-11-29T20:16:25.923Z,17.40
2022-11-29T20:18:53.099Z,17.88
2022-11-29T20:21:22.243Z,17.35
2022-11-29T20:23:49.383Z,17.60
2022-11-29T20:26:20.590Z,17.35
2022-11-29T20:28:47.650Z,18.17
2022-11-29T20:31:17.296Z,18.33
2022-11-29T20:33:45.765Z,18.17
2022-11-29T20:36:33.663Z,18.17
2022-11-29T20:39:11.855Z,16.17
2022-11-29T20:41:50.141Z,15.30
2022-11-29T20:44:21.212Z,15.25
2022-11-29T20:46:47.835Z,16.98
2022-11-29T20:49:15.108Z,16.60
2022-11-29T20:51:58.601Z,16.90
2022-11-29T20:54:25.082Z,15.75
2022-11-29T20:56:51.435Z,15.80
2022-11-29T20:59:17.983Z,16.67
2022-11-29T21:01:44.395Z,16.73
2022-11-29T21:04:10.816Z,16.23
2022-11-29T21:06:38.255Z,15.10
2022-11-29T21:09:05.355Z,14.02
2022-11-29T21:11:32.349Z,16.13
2022-11-29T21:14:03.303Z,14.90
2022-11-29T21:16:31.561Z,16.42
2022-11-29T21:19:00.212Z,17.20
2022-11-29T21:22:11.739Z,17.42
2022-11-29T21:25:03.053Z,18.10
2022-11-29T21:27:34.609Z,18.17
2022-11-29T21:30:05.603Z,20.33
2022-11-29T21:32:33.101Z,19.98
2022-11-29T21:34:59.737Z,20.98
2022-11-29T21:37:29.875Z,23.42
2022-11-29T21:39:57.456Z,21.17
2022-11-29T21:42:23.950Z,23.65
2022-11-29T21:44:50.272Z,29.98
2022-11-29T21:47:16.770Z,35.63
2022-11-29T21:49:43.257Z,35.67
2022-11-29T21:52:09.828Z,21.58
2022-11-29T21:54:37.088Z,21.02
2022-11-29T21:57:04.294Z,18.60
2022-11-29T21:59:30.721Z,17.52
2022-11-29T22:01:57.355Z,16.45
2022-11-29T22:04:25.302Z,17.90
2022-11-29T22:06:51.698Z,15.85
2022-11-29T22:09:18.061Z,16.38
2022-11-29T22:11:45.020Z,16.65
2022-11-29T22:14:13.468Z,17.10
2022-11-29T22:16:49.195Z,16.33
2022-11-29T22:19:19.819Z,15.40
2022-11-29T22:21:49.314Z,15.43
2022-11-29T22:24:17.533Z,14.63
2022-11-29T22:26:44.457Z,15.13
2022-11-29T22:29:13.943Z,15.65
2022-11-29T22:31:45.058Z,13.55
2022-11-29T22:34:11.662Z,15.68
2022-11-29T22:36:38.933Z,14.13
2022-11-29T22:39:06.698Z,15.95
2022-11-29T22:41:34.586Z,14.85
2022-11-29T22:44:01.500Z,14.43
2022-11-29T22:46:28.918Z,14.15
2022-11-29T22:48:57.596Z,15.30
2022-11-29T22:51:35.753Z,15.45
2022-11-29T22:54:08.603Z,13.75
2022-11-29T22:56:37.179Z,14.57
2022-11-29T22:59:04.697Z,17.00
2022-11-29T23:01:33.907Z,16.23
2022-11-29T23:04:03.800Z,16.25
2022-11-29T23:06:33.109Z,15.32
2022-11-29T23:09:10.719Z,14.48
2022-11-29T23:11:38.127Z,16.33
2022-11-29T23:14:04.763Z,14.95
2022-11-29T23:16:31.365Z,17.35
2022-11-29T23:18:59.127Z,18.27
2022-11-29T23:21:28.784Z,16.67
2022-11-29T23:23:56.921Z,17.30
2022-11-29T23:26:27.368Z,15.75
2022-11-29T23:28:54.399Z,16.20
2022-11-29T23:31:22.200Z,15.07
2022-11-29T23:33:49.237Z,15.65
2022-11-29T23:36:16.283Z,15.15
2022-11-29T23:38:42.863Z,13.85
2022-11-29T23:41:10.570Z,15.38
2022-11-29T23:43:38.488Z,15.02
2022-11-29T23:46:07.097Z,14.90
2022-11-29T23:48:33.497Z,13.98
2022-11-29T23:51:00.350Z,14.68
2022-11-29T23:53:27.080Z,13.38
2022-11-29T23:55:58.324Z,13.52
2022-11-29T23:58:25.399Z,12.68
